Urb Victor Rojas 2, Puerto Rico
Current Conditions -  °F | °C
As of 10:50 AM on Friday 31 Oct 2014 (Local Time) from TJBQ Reporting Station
Scattered Clouds Scattered Clouds  
Wind Chill: 84°   Ceiling: Unl
Heat Index: 92°   Visibility: 10mi
Dew Point: 75°   Wind: 7mph
Humidity: 74%   Direction: 300°WNW
Pressure: 29.91"   Gusts: NA
Location:  18.4739°N, 66.7295°W
Report Text: TJBQ 311450Z 30006KT 10SM SCT023 SCT046 29/24 A2991 RMK RWY 26 - ATIS O
Loading
Personal Weather Stations






























Interactive Weather Map
Tropical Storm Tracking
New forecast layout! Learn more

10-Day Weather Forecast

Advertisements
Track Severe Weather on mobile